Time;durP1;ratioP1;P1;durP2;ratioP2;P2;SDS_P1;SDS_P2;PMS_P1;PMS_P2;Temp;Humidity;BMP_temperature;BMP_pressure;BME280_temperature;BME280_humidity;BME280_pressure;Samples;Min_cycle;Max_cycle;Signal;HPM_P1;HPM_P2
2022/11/21 00:00:59;;;;;;;2.63;0.40;;;;;;;2.77;100.00;95035.06;5110001;27;24441;-73
2022/11/21 00:03:26;;;;;;;3.60;0.60;;;;;;;2.78;100.00;95026.47;5118997;27;24807;-73
2022/11/21 00:05:52;;;;;;;1.00;0.50;;;;;;;2.80;100.00;95028.09;5110542;27;25021;-73
2022/11/21 00:08:21;;;;;;;1.35;0.40;;;;;;;2.82;100.00;95030.59;5119623;27;25076;-73
2022/11/21 00:10:47;;;;;;;0.43;0.30;;;;;;;2.83;100.00;95033.06;5123618;27;25037;-73
2022/11/21 00:13:17;;;;;;;0.57;0.20;;;;;;;3.01;100.00;95021.19;5114781;27;24818;-74
2022/11/21 00:15:44;;;;;;;2.80;0.47;;;;;;;2.87;100.00;95015.84;5111362;27;24439;-73
2022/11/21 00:18:12;;;;;;;0.70;0.30;;;;;;;2.88;100.00;95020.06;5116203;27;24990;-73
2022/11/21 00:20:39;;;;;;;0.77;0.22;;;;;;;2.85;100.00;95009.97;5115881;27;24461;-73
2022/11/21 00:23:05;;;;;;;1.13;0.43;;;;;;;2.82;100.00;95005.00;5115669;27;24430;-73
2022/11/21 00:25:32;;;;;;;0.98;0.50;;;;;;;2.79;100.00;95007.72;5120209;27;24434;-72
2022/11/21 00:27:58;;;;;;;0.50;0.30;;;;;;;2.74;100.00;94999.38;5119435;27;24449;-73
2022/11/21 00:30:25;;;;;;;1.20;0.50;;;;;;;2.66;100.00;94992.88;5128894;27;24429;-73
2022/11/21 00:32:53;;;;;;;2.70;0.60;;;;;;;2.70;100.00;94992.75;5118719;27;24473;-73
2022/11/21 00:35:20;;;;;;;3.92;0.60;;;;;;;2.63;100.00;94995.59;5125232;27;25101;-73
2022/11/21 00:37:47;;;;;;;1.13;0.40;;;;;;;2.65;100.00;94991.22;5116789;27;24975;-73
2022/11/21 00:40:14;;;;;;;0.73;0.40;;;;;;;2.64;100.00;94986.19;5112252;27;24484;-74
2022/11/21 00:42:40;;;;;;;3.50;0.35;;;;;;;2.74;100.00;94977.19;5111042;28;24464;-73
2022/11/21 00:45:07;;;;;;;0.82;0.20;;;;;;;2.76;100.00;94977.97;5111005;27;24434;-73
2022/11/21 00:47:34;;;;;;;1.15;0.95;;;;;;;2.72;100.00;94990.97;5106787;27;24436;-74
2022/11/21 00:50:02;;;;;;;4.45;3.25;;;;;;;2.69;100.00;94991.09;5118411;27;25009;-73
2022/11/21 00:52:28;;;;;;;2.10;0.90;;;;;;;2.70;100.00;94987.63;5116801;27;24444;-73
2022/11/21 00:54:55;;;;;;;1.77;0.43;;;;;;;2.62;100.00;94988.81;5112983;27;24452;-73
2022/11/21 00:57:22;;;;;;;1.60;0.80;;;;;;;2.66;100.00;94992.88;5110880;27;24888;-73
2022/11/21 00:59:48;;;;;;;1.33;0.90;;;;;;;2.72;100.00;94999.47;5115691;27;24449;-73
2022/11/21 01:02:15;;;;;;;3.22;1.30;;;;;;;2.66;100.00;94987.78;5120603;27;24436;-73
2022/11/21 01:04:41;;;;;;;2.65;0.80;;;;;;;2.72;100.00;94999.47;5118544;27;24799;-72
2022/11/21 01:07:09;;;;;;;1.98;0.60;;;;;;;2.72;100.00;94999.47;5116304;27;24430;-72
2022/11/21 01:09:36;;;;;;;2.38;0.77;;;;;;;2.71;100.00;94990.16;5104662;27;24433;-72
2022/11/21 01:12:02;;;;;;;2.22;0.90;;;;;;;2.76;100.00;94990.75;5118103;27;24444;-73
2022/11/21 01:14:29;;;;;;;2.58;0.70;;;;;;;2.76;100.00;94984.81;5117090;27;24433;-72
2022/11/21 01:16:55;;;;;;;1.92;0.80;;;;;;;2.75;100.00;94978.06;5111706;27;24453;-72
2022/11/21 01:19:22;;;;;;;2.15;0.90;;;;;;;2.79;100.00;94974.47;5114881;27;24442;-72
2022/11/21 01:21:48;;;;;;;3.47;0.90;;;;;;;2.77;100.00;94979.63;5117868;27;24799;-73
2022/11/21 01:24:16;;;;;;;1.90;0.73;;;;;;;2.76;100.00;94974.59;5113061;27;24429;-73
2022/11/21 01:26:43;;;;;;;4.85;1.00;;;;;;;2.77;100.00;94976.25;5111113;27;24438;-73
2022/11/21 01:29:09;;;;;;;3.03;1.00;;;;;;;2.78;100.00;94977.91;5114496;27;24430;-73
2022/11/21 01:31:36;;;;;;;3.92;0.70;;;;;;;2.74;100.00;94973.81;5121665;27;24437;-72
2022/11/21 01:34:02;;;;;;;2.70;1.00;;;;;;;2.78;100.00;94980.44;5119305;27;24429;-73
2022/11/21 01:36:30;;;;;;;7.05;1.00;;;;;;;2.72;100.00;94973.91;5108237;27;24428;-73
2022/11/21 01:39:00;;;;;;;2.55;0.75;;;;;;;2.73;100.00;94974.72;5101524;27;24454;-72
2022/11/21 01:41:32;;;;;;;3.97;0.95;;;;;;;2.73;100.00;94967.06;5116679;27;25009;-73
2022/11/21 01:43:59;;;;;;;1.70;0.70;;;;;;;2.70;100.00;94965.47;5120013;27;24436;-73
2022/11/21 01:46:26;;;;;;;1.20;0.40;;;;;;;2.67;100.00;94957.94;5121597;27;24448;-73
2022/11/21 01:49:00;;;;;;;1.52;0.70;;;;;;;2.60;100.00;94965.06;5111986;27;24529;-73
2022/11/21 01:51:32;;;;;;;1.30;0.50;;;;;;;2.55;100.00;94966.97;5116627;27;24437;-72
2022/11/21 01:54:02;;;;;;;1.25;0.60;;;;;;;2.51;100.00;94973.13;5113857;27;24429;-73
2022/11/21 01:56:38;;;;;;;1.08;0.40;;;;;;;2.45;100.00;94967.44;5104731;27;24481;-73
2022/11/21 01:59:08;;;;;;;1.50;0.50;;;;;;;2.42;100.00;94968.41;5103693;27;25210;-73
2022/11/21 02:01:36;;;;;;;1.17;0.32;;;;;;;2.28;100.00;94960.53;5116668;27;24448;-73
2022/11/21 02:04:03;;;;;;;1.38;0.43;;;;;;;2.31;100.00;94960.41;5121503;27;24446;-73
2022/11/21 02:06:32;;;;;;;0.63;0.25;;;;;;;2.27;100.00;94964.81;5117555;27;25053;-73
2022/11/21 02:09:00;;;;;;;1.00;0.30;;;;;;;2.27;100.00;94966.53;5112479;27;24443;-73
2022/11/21 02:11:34;;;;;;;1.13;0.50;;;;;;;2.22;100.00;94959.03;5119256;27;24486;-73
2022/11/21 02:14:00;;;;;;;0.57;0.30;;;;;;;2.17;100.00;94956.69;5121810;27;24483;-73
2022/11/21 02:16:27;;;;;;;0.82;0.20;;;;;;;2.14;100.00;94963.66;5119297;27;24429;-73
2022/11/21 02:18:54;;;;;;;0.50;0.22;;;;;;;2.11;100.00;94959.53;5116166;27;24437;-73
2022/11/21 02:21:32;;;;;;;0.57;0.30;;;;;;;2.18;100.00;94945.56;5116288;27;24442;-73
2022/11/21 02:24:05;;;;;;;0.80;0.40;;;;;;;2.17;100.00;94951.59;5122438;27;24441;-73
2022/11/21 02:26:34;;;;;;;1.40;0.40;;;;;;;2.16;100.00;94947.38;5107164;27;25022;-73
2022/11/21 02:29:01;;;;;;;1.25;0.40;;;;;;;2.13;100.00;94941.56;5112804;27;24441;-72
2022/11/21 02:31:27;;;;;;;0.52;0.28;;;;;;;2.14;100.00;94948.34;5118807;27;24441;-73
2022/11/21 02:33:54;;;;;;;2.30;0.28;;;;;;;2.15;100.00;94945.72;5121480;27;24437;-73
2022/11/21 02:36:41;;;;;;;0.65;0.30;;;;;;;2.13;100.00;94944.13;5111114;27;24445;-73
2022/11/21 02:39:11;;;;;;;2.80;0.30;;;;;;;2.13;100.00;94936.47;5116980;28;24436;-73
2022/11/21 02:41:45;;;;;;;0.80;0.30;;;;;;;2.08;100.00;94940.97;5114556;28;24437;-73
2022/11/21 02:44:19;;;;;;;0.47;0.10;;;;;;;2.18;100.00;94937.91;5115643;28;24445;-73
2022/11/21 02:46:49;;;;;;;0.90;0.30;;;;;;;2.12;100.00;94932.25;5118875;28;24433;-73
2022/11/21 02:49:21;;;;;;;0.70;0.30;;;;;;;2.26;100.00;94939.31;5117190;28;24445;-72
2022/11/21 02:51:48;;;;;;;2.10;0.10;;;;;;;2.31;100.00;94938.22;5108464;28;25005;-73
2022/11/21 02:54:15;;;;;;;1.17;0.40;;;;;;;2.40;100.00;94937.81;5117088;28;24434;-73
2022/11/21 02:56:42;;;;;;;0.60;0.20;;;;;;;2.52;100.00;94925.38;5111295;28;24444;-73
2022/11/21 02:59:09;;;;;;;0.30;0.20;;;;;;;2.51;100.00;94924.56;5117128;28;24433;-72
2022/11/21 03:01:35;;;;;;;0.63;0.20;;;;;;;2.58;100.00;94925.13;5120660;28;24439;-73
2022/11/21 03:04:02;;;;;;;0.40;0.20;;;;;;;2.64;100.00;94925.66;5121098;28;25235;-73
2022/11/21 03:06:28;;;;;;;0.60;0.20;;;;;;;2.72;100.00;94920.22;5111300;28;24440;-73
2022/11/21 03:08:55;;;;;;;0.68;0.28;;;;;;;2.64;100.00;94920.56;5118795;28;24453;-73
2022/11/21 03:11:21;;;;;;;0.40;0.17;;;;;;;2.61;100.00;94912.19;5118910;28;24426;-73
2022/11/21 03:13:49;;;;;;;0.40;0.20;;;;;;;2.76;100.00;94910.66;5122564;28;24436;-73
2022/11/21 03:16:16;;;;;;;0.22;0.10;;;;;;;2.68;100.00;94903.34;5108776;28;24445;-73
2022/11/21 03:18:42;;;;;;;0.80;0.22;;;;;;;2.63;100.00;94906.13;5118638;28;24434;-73
2022/11/21 03:21:09;;;;;;;0.40;0.20;;;;;;;2.63;100.00;94906.13;5108920;28;24457;-73
2022/11/21 03:23:35;;;;;;;0.70;0.30;;;;;;;2.64;100.00;94914.63;5113725;28;24465;-73
2022/11/21 03:26:02;;;;;;;0.80;0.50;;;;;;;2.67;100.00;94910.19;5120226;27;24459;-73
2022/11/21 03:28:28;;;;;;;0.63;0.40;;;;;;;2.67;100.00;94909.38;5106820;27;25005;-73
2022/11/21 03:30:56;;;;;;;5.90;3.53;;;;;;;2.49;100.00;94908.47;5105957;27;24437;-73
2022/11/21 03:33:23;;;;;;;2.20;1.30;;;;;;;2.59;100.00;94901.19;5116822;27;24882;-73
2022/11/21 03:35:49;;;;;;;1.70;1.17;;;;;;;2.63;100.00;94907.81;5108886;27;24441;-72
2022/11/21 03:38:16;;;;;;;8.98;3.80;;;;;;;2.52;100.00;94902.38;5118268;27;24542;-73
2022/11/21 03:40:42;;;;;;;3.35;2.10;;;;;;;2.50;100.00;94894.78;5113553;27;24464;-73
2022/11/21 03:43:09;;;;;;;1.83;0.80;;;;;;;2.58;100.00;94897.81;5120341;27;24440;-73
2022/11/21 03:45:35;;;;;;;1.30;0.45;;;;;;;2.55;100.00;94900.50;5111839;27;25323;-73
2022/11/21 03:48:04;;;;;;;2.97;1.45;;;;;;;2.62;100.00;94901.06;5108249;27;24434;-73
2022/11/21 03:50:30;;;;;;;2.00;0.93;;;;;;;2.66;100.00;94900.03;5108666;27;24433;-73
2022/11/21 03:52:57;;;;;;;4.22;2.05;;;;;;;2.59;100.00;94903.75;5117494;27;25014;-74
2022/11/21 03:55:23;;;;;;;1.20;0.60;;;;;;;2.56;100.00;94893.66;5112613;27;24453;-73
2022/11/21 03:57:50;;;;;;;1.80;0.80;;;;;;;2.55;100.00;94892.84;5108884;27;24437;-73
2022/11/21 04:00:17;;;;;;;3.33;1.92;;;;;;;2.57;100.00;94888.50;5109564;27;24458;-73
2022/11/21 04:02:43;;;;;;;2.22;1.45;;;;;;;2.57;100.00;94882.56;5123839;27;24452;-73
2022/11/21 04:05:11;;;;;;;5.50;3.63;;;;;;;2.50;100.00;94889.69;5122171;27;24428;-72
2022/11/21 04:07:38;;;;;;;11.75;7.60;;;;;;;2.52;100.00;94887.03;5111238;27;25005;-72
2022/11/21 04:10:05;;;;;;;3.90;2.27;;;;;;;2.52;100.00;94890.44;5115596;27;24483;-72
2022/11/21 04:12:31;;;;;;;15.38;8.40;;;;;;;2.48;100.00;94882.97;5123388;27;24440;-73
2022/11/21 04:14:57;;;;;;;2.10;1.20;;;;;;;2.46;100.00;94874.56;5121725;27;24433;-73
2022/11/21 04:17:24;;;;;;;9.77;6.90;;;;;;;2.39;100.00;94884.22;5113157;27;24795;-73
2022/11/21 04:19:50;;;;;;;0.80;0.50;;;;;;;2.30;100.00;94888.03;5105985;27;25113;-73
2022/11/21 04:22:18;;;;;;;2.40;0.85;;;;;;;2.32;100.00;94878.56;5119955;27;24440;-73
2022/11/21 04:24:45;;;;;;;3.47;2.50;;;;;;;2.39;100.00;94881.66;5118798;27;24433;-73
2022/11/21 04:27:11;;;;;;;1.90;1.27;;;;;;;2.42;100.00;94881.53;5111822;27;24966;-73
2022/11/21 04:29:38;;;;;;;1.83;1.05;;;;;;;2.53;100.00;94884.44;5109144;27;24429;-73
2022/11/21 04:32:05;;;;;;;1.60;1.30;;;;;;;2.57;100.00;94880.00;5111934;27;24495;-73
2022/11/21 04:34:31;;;;;;;2.17;1.40;;;;;;;2.52;100.00;94882.78;5119167;27;24439;-73
2022/11/21 04:36:58;;;;;;;3.77;1.40;;;;;;;2.60;100.00;94885.00;5108870;27;24449;-73
2022/11/21 04:39:25;;;;;;;1.50;0.80;;;;;;;2.53;100.00;94881.06;5109708;27;24437;-74
2022/11/21 04:41:52;;;;;;;1.40;0.45;;;;;;;2.50;100.00;94868.41;5117157;27;24920;-73
2022/11/21 04:44:18;;;;;;;1.20;0.70;;;;;;;2.57;100.00;94868.06;5120407;27;24440;-73
2022/11/21 04:46:45;;;;;;;4.75;1.00;;;;;;;2.97;100.00;94867.94;5117786;27;24433;-74
2022/11/21 04:49:11;;;;;;;2.95;1.20;;;;;;;3.13;100.00;94871.41;5116760;27;24444;-73
2022/11/21 04:51:38;;;;;;;3.70;0.98;;;;;;;3.38;100.00;94864.19;5122761;27;24441;-73
2022/11/21 04:54:05;;;;;;;3.73;1.00;;;;;;;3.58;100.00;94862.38;5110011;27;24997;-73
2022/11/21 04:56:32;;;;;;;3.83;1.25;;;;;;;3.68;100.00;94862.75;5114109;27;24444;-73
2022/11/21 04:58:59;;;;;;;3.17;1.13;;;;;;;3.62;100.00;94851.06;5112726;27;24440;-73
2022/11/21 05:01:25;;;;;;;8.77;1.13;;;;;;;3.66;100.00;94860.25;5104528;27;25112;-71
2022/11/21 05:03:52;;;;;;;3.73;1.37;;;;;;;3.71;100.00;94868.56;5117981;27;24441;-73
2022/11/21 05:06:19;;;;;;;3.70;0.90;;;;;;;3.77;100.00;94880.19;5115009;27;24804;-73
2022/11/21 05:08:45;;;;;;;4.57;1.50;;;;;;;3.74;100.00;94883.72;5115310;27;24440;-77
2022/11/21 05:13:58;;;;;;;5.13;1.10;;;;;;;3.53;100.00;94895.06;5119291;27;24441;-74
2022/11/21 05:16:24;;;;;;;5.07;1.13;;;;;;;3.53;100.00;94890.78;5117761;27;24437;-73
2022/11/21 05:18:51;;;;;;;4.72;1.23;;;;;;;3.44;100.00;94886.09;5109323;27;24799;-74
2022/11/21 05:21:17;;;;;;;3.38;1.15;;;;;;;3.38;100.00;94879.56;5102105;27;24458;-74
2022/11/21 05:23:44;;;;;;;9.57;1.63;;;;;;;3.32;100.00;94876.47;5114415;27;25016;-74
2022/11/21 05:26:10;;;;;;;7.38;1.27;;;;;;;3.30;100.00;94865.44;5103776;27;24433;-74
2022/11/21 05:28:37;;;;;;;3.47;1.17;;;;;;;3.26;100.00;94885.25;5116972;27;24806;-74
2022/11/21 05:31:05;;;;;;;4.47;1.23;;;;;;;3.25;100.00;94880.22;5110331;27;24437;-74
2022/11/21 05:33:31;;;;;;;8.27;2.65;;;;;;;3.21;100.00;94886.38;5095567;27;24444;-74
2022/11/21 05:35:58;;;;;;;3.25;1.30;;;;;;;3.20;100.00;94885.56;5099707;28;24983;-74
2022/11/21 05:38:24;;;;;;;3.25;1.13;;;;;;;3.31;100.00;94885.03;5109253;27;24440;-74
2022/11/21 05:40:51;;;;;;;3.05;0.90;;;;;;;3.46;100.00;94883.47;5111602;27;25049;-74
2022/11/21 05:46:02;;;;;;;4.50;1.10;;;;;;;3.57;100.00;94884.59;5113491;27;24448;-73
2022/11/21 05:48:30;;;;;;;3.80;1.20;;;;;;;3.60;100.00;94881.88;5111372;27;24943;-74
2022/11/21 05:50:56;;;;;;;4.50;1.38;;;;;;;3.59;100.00;94879.38;5111271;27;25096;-74
2022/11/21 05:53:23;;;;;;;3.35;1.08;;;;;;;3.54;100.00;94884.75;5113285;27;24434;-71
2022/11/21 05:55:49;;;;;;;4.60;1.58;;;;;;;3.60;100.00;94887.00;5109934;27;24440;-74
2022/11/21 05:58:16;;;;;;;6.27;1.50;;;;;;;3.62;100.00;94882.63;5114171;27;24457;-74
2022/11/21 06:00:42;;;;;;;10.00;2.38;;;;;;;3.54;100.00;94883.91;5106023;27;24835;-74
2022/11/21 06:03:29;;;;;;;5.38;1.48;;;;;;;3.53;100.00;94883.09;5104946;27;24434;-74
2022/11/21 06:06:04;;;;;;;6.93;1.75;;;;;;;3.57;100.00;94876.09;5105232;28;25239;-74
2022/11/21 06:08:33;;;;;;;6.32;1.75;;;;;;;3.52;100.00;94890.81;5111374;27;24440;-75
2022/11/21 06:11:00;;;;;;;4.87;1.57;;;;;;;3.52;100.00;94893.38;5112317;27;24525;-74
2022/11/21 06:13:27;;;;;;;6.07;1.60;;;;;;;3.58;100.00;94881.13;5108525;27;25003;-74
2022/11/21 06:15:58;;;;;;;5.63;2.55;;;;;;;3.62;100.00;94889.47;5099334;28;24434;-74
2022/11/21 06:18:24;;;;;;;5.60;1.40;;;;;;;3.57;100.00;94889.72;5112067;27;24442;-74
2022/11/21 06:20:51;;;;;;;10.25;2.40;;;;;;;3.59;100.00;94890.44;5113788;27;24465;-74
2022/11/21 06:23:19;;;;;;;8.48;2.25;;;;;;;3.57;100.00;94887.16;5111656;27;25004;-74
2022/11/21 06:25:45;;;;;;;14.57;2.97;;;;;;;3.47;100.00;94888.50;5116512;27;25083;-74
2022/11/21 06:28:12;;;;;;;6.22;1.73;;;;;;;3.52;100.00;94885.72;5117255;27;24441;-74
2022/11/21 06:30:39;;;;;;;5.32;1.55;;;;;;;3.59;100.00;94894.75;5112362;27;24432;-74
2022/11/21 06:33:06;;;;;;;5.97;1.90;;;;;;;3.51;100.00;94897.69;5110037;27;24460;-74
2022/11/21 06:35:33;;;;;;;6.10;1.88;;;;;;;3.44;100.00;94898.06;5107820;27;24426;-73
2022/11/21 06:37:59;;;;;;;6.93;1.58;;;;;;;3.59;100.00;94890.44;5102632;27;24441;-73
2022/11/21 06:40:27;;;;;;;7.80;2.05;;;;;;;3.54;100.00;94889.03;5108222;28;24461;-73
2022/11/21 06:42:54;;;;;;;4.78;1.73;;;;;;;3.49;100.00;94896.13;5112822;28;24997;-74
2022/11/21 06:45:20;;;;;;;6.40;2.13;;;;;;;3.39;100.00;94893.19;5106563;28;24437;-74
2022/11/21 06:47:47;;;;;;;8.30;2.42;;;;;;;3.33;100.00;94893.47;5114509;28;24434;-73
2022/11/21 06:50:13;;;;;;;8.52;2.00;;;;;;;3.28;100.00;94895.44;5103303;28;24438;-74
2022/11/21 06:52:40;;;;;;;6.72;1.90;;;;;;;3.24;100.00;94902.41;5118365;27;25006;-74
2022/11/21 06:55:08;;;;;;;6.35;2.10;;;;;;;3.20;100.00;94920.56;5102800;28;24523;-74
2022/11/21 06:57:35;;;;;;;7.93;1.70;;;;;;;3.23;100.00;94928.09;5121986;27;24456;-74
2022/11/21 07:00:03;;;;;;;6.15;2.42;;;;;;;3.24;100.00;94927.19;5102561;28;24461;-74
2022/11/21 07:02:29;;;;;;;8.95;2.22;;;;;;;3.24;100.00;94933.13;5118042;27;24446;-75
2022/11/21 07:04:56;;;;;;;8.68;3.03;;;;;;;3.21;100.00;94929.88;5115490;27;24441;-74
2022/11/21 07:07:22;;;;;;;9.65;2.03;;;;;;;3.10;100.00;94928.66;5127161;27;24519;-74
2022/11/21 07:09:50;;;;;;;4.95;1.77;;;;;;;3.12;100.00;94937.09;5118578;27;24803;-74
2022/11/21 07:15:01;;;;;;;7.27;2.03;;;;;;;3.33;100.00;94937.78;5114505;27;25013;-74
2022/11/21 07:17:28;;;;;;;5.53;1.77;;;;;;;3.29;100.00;94927.78;5110833;27;24440;-74
2022/11/21 07:19:54;;;;;;;5.57;2.00;;;;;;;3.34;100.00;94926.69;5095075;27;24436;-74
2022/11/21 07:22:21;;;;;;;4.95;2.00;;;;;;;3.53;100.00;94926.63;5115583;27;24828;-76
2022/11/21 07:24:47;;;;;;;5.25;1.80;;;;;;;3.57;100.00;94929.84;5114004;27;24438;-74
2022/11/21 07:27:14;;;;;;;5.33;1.63;;;;;;;3.52;100.00;94932.66;5122400;27;24433;-75
2022/11/21 07:29:40;;;;;;;4.80;1.97;;;;;;;3.58;100.00;94923.81;5102418;27;24433;-75
2022/11/21 07:32:08;;;;;;;5.18;2.30;;;;;;;3.67;100.00;94918.25;5101105;27;24453;-75
2022/11/21 07:34:35;;;;;;;4.30;1.80;;;;;;;3.61;100.00;94919.38;5101633;28;24429;-75
2022/11/21 07:37:01;;;;;;;5.93;1.50;;;;;;;3.59;100.00;94916.06;5113609;27;24435;-74
2022/11/21 07:39:28;;;;;;;6.65;2.58;;;;;;;3.68;100.00;94909.66;5108618;28;25045;-75
2022/11/21 07:41:55;;;;;;;7.68;3.33;;;;;;;3.78;100.00;94910.03;5113748;27;24459;-76
2022/11/21 07:44:22;;;;;;;4.95;2.05;;;;;;;3.88;100.00;94903.53;5105093;27;24426;-75
2022/11/21 07:46:48;;;;;;;4.82;2.10;;;;;;;3.90;100.00;94904.31;5115633;27;24437;-75
2022/11/21 07:49:16;;;;;;;6.72;3.25;;;;;;;3.92;100.00;94905.03;5105890;27;24429;-76
2022/11/21 07:51:42;;;;;;;5.57;2.78;;;;;;;3.92;100.00;94906.78;5120628;27;24425;-76
2022/11/21 07:54:09;;;;;;;8.32;2.45;;;;;;;3.82;100.00;94906.41;5099552;27;24443;-76
2022/11/21 07:56:36;;;;;;;8.02;4.18;;;;;;;3.82;100.00;94919.22;5109105;27;24445;-76
2022/11/21 07:59:02;;;;;;;5.15;2.28;;;;;;;3.95;100.00;94912.56;5125706;27;24830;-76
2022/11/21 08:01:29;;;;;;;7.53;3.95;;;;;;;4.03;100.00;94907.06;5114910;27;24456;-76
2022/11/21 08:03:55;;;;;;;14.02;6.28;;;;;;;4.26;100.00;94918.69;5111481;27;24438;-76
2022/11/21 08:06:23;;;;;;;7.82;3.83;;;;;;;4.50;100.00;94921.72;5101330;28;24814;-76
2022/11/21 08:08:52;;;;;;;3.78;1.83;;;;;;;4.74;100.00;94905.03;5114922;27;24436;-75
2022/11/21 08:11:19;;;;;;;3.73;1.63;;;;;;;4.71;100.00;94912.06;5128583;27;25315;-75
2022/11/21 08:13:46;;;;;;;5.35;2.08;;;;;;;4.57;100.00;94913.63;5113551;27;24433;-75
2022/11/21 08:16:12;;;;;;;6.82;2.00;;;;;;;4.63;100.00;94909.06;5121737;27;25026;-75
2022/11/21 08:18:39;;;;;;;9.93;1.40;;;;;;;4.56;100.00;94909.41;5112898;27;24438;-75
2022/11/21 08:21:05;;;;;;;6.85;2.13;;;;;;;4.38;100.00;94912.13;5100205;27;24458;-75
2022/11/21 08:23:33;;;;;;;3.58;1.73;;;;;;;4.34;100.00;94914.03;5108399;27;24439;-76
2022/11/21 08:26:00;;;;;;;3.75;2.15;;;;;;;4.41;100.00;94915.31;5114332;27;24989;-73
2022/11/21 08:28:26;;;;;;;6.00;2.03;;;;;;;4.49;100.00;94897.81;5118085;27;24457;-72
2022/11/21 08:30:53;;;;;;;5.80;2.10;;;;;;;4.69;100.00;94907.00;5114797;27;24440;-72
2022/11/21 08:33:20;;;;;;;5.60;1.90;;;;;;;4.73;100.00;94902.56;5112721;27;24966;-71
2022/11/21 08:35:46;;;;;;;4.38;1.52;;;;;;;4.76;100.00;94894.69;5117307;27;24433;-72
2022/11/21 08:38:13;;;;;;;3.75;1.40;;;;;;;4.94;100.00;94898.81;5109521;27;24441;-72
2022/11/21 08:40:41;;;;;;;4.22;1.67;;;;;;;5.12;100.00;94898.72;5113082;27;24469;-72
2022/11/21 08:43:09;;;;;;;5.38;1.35;;;;;;;5.20;100.00;94897.41;5093033;28;24453;-72
2022/11/21 08:45:38;;;;;;;5.35;1.63;;;;;;;5.25;100.00;94890.25;5106246;28;24832;-72
2022/11/21 08:48:10;;;;;;;7.32;1.70;;;;;;;5.37;100.00;94888.72;5098763;28;24515;-71
2022/11/21 08:50:36;;;;;;;6.37;1.53;;;;;;;5.38;100.00;94890.41;5125860;27;24444;-72
2022/11/21 08:53:03;;;;;;;5.22;1.70;;;;;;;5.75;100.00;94878.84;5119851;27;24421;-72
2022/11/21 08:55:30;;;;;;;4.10;1.45;;;;;;;5.74;100.00;94877.19;5115671;27;24445;-72
2022/11/21 08:57:58;;;;;;;5.25;1.48;;;;;;;5.57;100.00;94873.03;5115994;27;24445;-73
2022/11/21 09:00:25;;;;;;;4.03;1.05;;;;;;;5.65;100.00;94874.34;5110653;27;24437;-73
2022/11/21 09:02:52;;;;;;;3.50;1.40;;;;;;;5.66;100.00;94871.66;5105308;27;24820;-73
2022/11/21 09:05:18;;;;;;;6.63;1.40;;;;;;;5.59;100.00;94876.31;5122150;27;24438;-74
2022/11/21 09:07:45;;;;;;;5.90;1.70;;;;;;;5.67;100.00;94872.47;5118412;27;24997;-73
2022/11/21 09:10:11;;;;;;;5.63;1.48;;;;;;;5.69;100.00;94878.38;5119284;27;24436;-72
2022/11/21 09:12:38;;;;;;;3.85;1.38;;;;;;;5.92;100.00;94872.75;5115787;27;24426;-72
2022/11/21 09:20:32;;;;;;;5.57;1.50;;;;;;;6.12;100.00;94874.16;5110435;27;24449;-72
2022/11/21 09:23:03;;;;;;;4.63;1.42;;;;;;;6.21;100.00;94875.34;5125307;27;24449;-71
2022/11/21 09:25:30;;;;;;;7.38;1.70;;;;;;;6.36;100.00;94882.13;5107063;27;24448;-72
2022/11/21 09:27:59;;;;;;;4.27;1.50;;;;;;;6.30;100.00;94872.19;5110007;27;24434;-71
2022/11/21 09:30:27;;;;;;;4.60;1.50;;;;;;;6.12;100.00;94883.59;5108631;27;24549;-68
2022/11/21 09:32:53;;;;;;;5.82;1.40;;;;;;;5.83;100.00;94873.28;5113639;27;25261;-73
2022/11/21 09:35:20;;;;;;;4.00;1.40;;;;;;;5.95;100.00;94861.47;5112856;27;24449;-72
2022/11/21 09:37:46;;;;;;;7.13;1.37;;;;;;;6.11;100.00;94864.75;5116365;27;24437;-72
2022/11/21 09:40:15;;;;;;;5.20;1.70;;;;;;;6.17;100.00;94855.88;5114665;27;25014;-72
2022/11/21 09:42:59;;;;;;;3.58;1.30;;;;;;;6.16;100.00;94854.22;5116317;27;24448;-73
2022/11/21 09:45:32;;;;;;;3.78;1.45;;;;;;;6.30;100.00;94852.47;5119026;27;24437;-72
2022/11/21 09:48:02;;;;;;;4.85;1.40;;;;;;;6.37;100.00;94846.94;5118268;27;24435;-73
2022/11/21 09:50:32;;;;;;;4.65;1.65;;;;;;;6.30;100.00;94837.06;5114002;27;24874;-73
2022/11/21 09:53:05;;;;;;;4.20;1.35;;;;;;;6.43;100.00;94833.72;5115722;27;24430;-73
2022/11/21 09:55:40;;;;;;;5.75;1.40;;;;;;;6.85;100.00;94834.53;5110143;27;25039;-72
2022/11/21 09:58:16;;;;;;;22.25;8.98;;;;;;;6.66;100.00;94843.41;5119429;27;24436;-72
2022/11/21 10:00:44;;;;;;;5.85;2.90;;;;;;;6.80;100.00;94834.84;5111105;27;25006;-72
2022/11/21 10:03:12;;;;;;;6.20;2.03;;;;;;;6.96;100.00;94825.22;5120054;27;21507;-72
2022/11/21 10:05:44;;;;;;;5.72;1.80;;;;;;;6.74;100.00;94818.00;5099433;27;24438;-71
2022/11/21 10:08:20;;;;;;;5.32;1.50;;;;;;;6.96;100.00;94814.09;5112612;27;24938;-70
2022/11/21 10:10:54;;;;;;;5.07;1.65;;;;;;;7.03;100.00;94813.59;5114041;27;24434;-70
2022/11/21 10:13:34;;;;;;;6.15;1.35;;;;;;;7.06;100.00;94814.34;5114311;27;25340;-71
2022/11/21 10:16:09;;;;;;;5.37;1.60;;;;;;;6.79;100.00;94803.13;5110579;27;24449;-70
2022/11/21 10:19:06;;;;;;;6.82;1.60;;;;;;;6.61;100.00;94808.59;5105884;27;24432;-71
2022/11/21 10:21:56;;;;;;;6.43;1.60;;;;;;;6.68;100.00;94805.56;5085768;27;24997;-72
2022/11/21 10:24:39;;;;;;;7.30;2.38;;;;;;;6.68;100.00;94797.84;5117289;27;24437;-71
2022/11/21 10:27:14;;;;;;;7.82;1.98;;;;;;;6.82;100.00;94796.94;5114410;27;25018;-71
2022/11/21 10:29:47;;;;;;;6.63;2.20;;;;;;;6.90;100.00;94791.34;5116419;27;24436;-71
2022/11/21 10:32:23;;;;;;;7.00;1.80;;;;;;;6.83;100.00;94790.06;5117552;27;24864;-71
2022/11/21 10:34:51;;;;;;;9.13;2.30;;;;;;;6.79;100.00;94784.28;5122231;27;20747;-71
2022/11/21 10:37:30;;;;;;;6.55;1.60;;;;;;;6.88;100.00;94795.75;5116677;27;20802;-71
2022/11/21 10:40:03;;;;;;;6.78;1.45;;;;;;;6.74;100.00;94783.75;5108284;27;20744;-71
2022/11/21 10:42:35;;;;;;;6.30;1.63;;;;;;;6.68;100.00;94773.84;5106223;28;20745;-72
2022/11/21 10:45:18;;;;;;;4.57;1.42;;;;;;;6.72;100.00;94770.16;5117314;28;20739;-71
2022/11/21 10:47:48;;;;;;;4.00;1.27;;;;;;;6.82;100.00;94763.47;5107153;28;24437;-71
2022/11/21 10:50:34;;;;;;;5.25;1.80;;;;;;;6.89;100.00;94764.75;5106242;28;24434;-71
2022/11/21 10:56:00;;;;;;;9.57;1.58;;;;;;;6.81;100.00;94754.13;5111111;28;20699;-71
2022/11/21 10:58:35;;;;;;;3.95;1.40;;;;;;;6.52;100.00;94750.81;5104225;28;20691;-71
2022/11/21 11:01:02;;;;;;;5.47;1.38;;;;;;;6.43;100.00;94744.53;5106090;28;21361;-71
2022/11/21 11:03:31;;;;;;;5.05;1.95;;;;;;;6.28;100.00;94730.88;5116206;28;24454;-71
2022/11/21 11:05:58;;;;;;;11.35;1.80;;;;;;;6.13;100.00;94736.16;5113413;28;24445;-71
2022/11/21 11:08:26;;;;;;;7.55;1.33;;;;;;;6.13;100.00;94739.53;5113847;28;24433;-71
2022/11/21 11:11:05;;;;;;;5.43;1.52;;;;;;;6.29;100.00;94727.38;5098661;28;20845;-71
2022/11/21 11:13:35;;;;;;;4.97;1.45;;;;;;;6.25;100.00;94722.53;5098721;28;24831;-71
2022/11/21 11:16:05;;;;;;;4.95;1.50;;;;;;;6.36;100.00;94722.69;5116390;28;24439;-71
2022/11/21 11:18:35;;;;;;;5.13;1.40;;;;;;;6.47;100.00;94714.28;5106458;28;24429;-71
2022/11/21 11:21:16;;;;;;;4.50;1.52;;;;;;;6.58;100.00;94714.44;5118211;28;24447;-71
2022/11/21 11:23:43;;;;;;;11.63;1.50;;;;;;;6.69;100.00;94703.47;5114008;28;24475;-71
2022/11/21 11:26:21;;;;;;;4.13;1.55;;;;;;;6.73;100.00;94700.56;5116478;28;24998;-72
2022/11/21 11:28:48;;;;;;;4.00;1.30;;;;;;;6.72;100.00;94691.22;5120742;28;20804;-72
2022/11/21 11:31:15;;;;;;;3.43;1.50;;;;;;;7.05;100.00;94691.69;5114445;28;24496;-73
2022/11/21 11:33:52;;;;;;;7.88;1.80;;;;;;;6.93;100.00;94685.56;5110622;28;24429;-71
2022/11/21 11:36:33;;;;;;;5.88;2.00;;;;;;;6.84;100.00;94681.88;5115392;28;24441;-71
2022/11/21 11:39:05;;;;;;;4.97;1.38;;;;;;;6.95;100.00;94676.84;5113184;28;24816;-71
2022/11/21 11:47:53;;;;;;;3.90;1.30;;;;;;;7.38;100.00;94658.53;5104985;27;20777;-71
2022/11/21 11:50:25;;;;;;;4.80;1.40;;;;;;;7.12;100.00;94654.28;5117172;27;24998;-71
2022/11/21 11:52:59;;;;;;;6.82;1.30;;;;;;;7.02;100.00;94648.94;5113640;27;21340;-72
2022/11/21 11:55:34;;;;;;;4.03;1.20;;;;;;;7.10;100.00;94648.44;5119144;27;24458;-72
2022/11/21 11:58:04;;;;;;;3.75;1.27;;;;;;;7.19;100.00;94638.34;5115663;27;21182;-71
2022/11/21 12:00:40;;;;;;;3.42;1.50;;;;;;;7.17;100.00;94636.81;5105771;27;25002;-71
2022/11/21 12:03:14;;;;;;;4.97;1.60;;;;;;;7.17;100.00;94641.94;5106689;27;20759;-71